| time (UTC) | temp F | wind direction | speed MPH | gust MPH | rain 1hr in | rain 24hr in | rain mn in | humidity % | barometer mb |
| 20260904225227 | 84 | 294 | 4.0 | 10.0 | 0.00 | 0.05 | 0.05 | 49 | 1009.6 |
| 20260904224727 | 85 | 328 | 2.0 | 10.0 | 0.00 | 0.05 | 0.05 | 49 | 1009.6 |
| 20260904224228 | 85 | 281 | 1.0 | 9.0 | 0.00 | 0.05 | 0.05 | 49 | 1009.6 |
| 20260904223727 | 85 | 238 | 2.0 | 9.0 | 0.00 | 0.05 | 0.05 | 48 | 1009.7 |
| 20260904223227 | 85 | 310 | 3.0 | 9.0 | 0.00 | 0.05 | 0.05 | 48 | 1009.7 |
| 20260904222228 | 85 | 269 | 4.0 | 9.0 | 0.00 | 0.05 | 0.05 | 47 | 1009.9 |
| 20260904221227 | 85 | 22 | 5.0 | 12.0 | 0.00 | 0.05 | 0.05 | 47 | 1009.6 |
| 20260904220728 | 85 | 252 | 5.0 | 12.0 | 0.00 | 0.05 | 0.05 | 47 | 1009.6 |
| 20260904220227 | 85 | 310 | 3.0 | 12.0 | 0.00 | 0.05 | 0.05 | 47 | 1009.6 |
| 20260904215727 | 85 | 232 | 4.0 | 12.0 | 0.00 | 0.05 | 0.05 | 47 | 1009.6 |
| 20260904215227 | 86 | 249 | 5.0 | 14.0 | 0.00 | 0.05 | 0.05 | 46 | 1009.5 |
| 20260904214728 | 86 | 298 | 3.0 | 14.0 | 0.00 | 0.05 | 0.05 | 46 | 1009.6 |
| 20260904214227 | 86 | 254 | 5.0 | 12.0 | 0.00 | 0.05 | 0.05 | 46 | 1009.4 |
| 20260904213727 | 86 | 201 | 1.0 | 14.0 | 0.00 | 0.05 | 0.05 | 47 | 1009.4 |
| 20260904213227 | 86 | 272 | 5.0 | 14.0 | 0.00 | 0.05 | 0.05 | 46 | 1009.5 |
| 20260904212727 | 86 | 321 | 6.0 | 14.0 | 0.00 | 0.05 | 0.05 | 46 | 1009.3 |
| 20260904212227 | 86 | 340 | 5.0 | 12.0 | 0.00 | 0.05 | 0.05 | 46 | 1009.3 |
| 20260904211727 | 86 | 207 | 5.0 | 10.0 | 0.00 | 0.05 | 0.05 | 46 | 1009.2 |
| 20260904211227 | 86 | 272 | 3.0 | 12.0 | 0.00 | 0.05 | 0.05 | 46 | 1009.3 |
| 20260904210727 | 86 | 253 | 4.0 | 12.0 | 0.00 | 0.05 | 0.05 | 46 | 1009.2 |
| 20260904210227 | 86 | 338 | 3.0 | 12.0 | 0.00 | 0.05 | 0.05 | 46 | 1009.4 |
| 20260904205728 | 86 | 285 | 5.0 | 12.0 | 0.00 | 0.05 | 0.05 | 44 | 1009.5 |
| 20260904205227 | 87 | 301 | 6.0 | 13.0 | 0.00 | 0.05 | 0.05 | 44 | 1009.6 |
| 20260904204727 | 87 | 323 | 7.0 | 13.0 | 0.00 | 0.05 | 0.05 | 44 | 1009.6 |
| 20260904204227 | 87 | 322 | 3.0 | 12.0 | 0.00 | 0.05 | 0.05 | 45 | 1009.6 |
| 20260904203227 | 87 | 311 | 3.0 | 13.0 | 0.00 | 0.05 | 0.05 | 44 | 1009.7 |
| 20260904202727 | 87 | 267 | 2.0 | 13.0 | 0.00 | 0.05 | 0.05 | 45 | 1009.7 |
| 20260904201727 | 87 | 331 | 4.0 | 12.0 | 0.00 | 0.05 | 0.05 | 45 | 1009.7 |
| 20260904200728 | 88 | 244 | 5.0 | 12.0 | 0.00 | 0.05 | 0.05 | 44 | 1009.7 |
| 20260904200227 | 88 | 351 | 5.0 | 12.0 | 0.00 | 0.05 | 0.05 | 44 | 1009.8 |
| 20260904195727 | 88 | 336 | 5.0 | 12.0 | 0.00 | 0.05 | 0.05 | 43 | 1009.9 |
| 20260904195227 | 88 | 302 | 3.0 | 12.0 | 0.00 | 0.05 | 0.05 | 44 | 1009.9 |
| 20260904193727 | 88 | 325 | 4.0 | 14.0 | 0.00 | 0.05 | 0.05 | 43 | 1010.1 |
| 20260904193227 | 88 | 306 | 7.0 | 14.0 | 0.00 | 0.05 | 0.05 | 42 | 1010.1 |
| 20260904192727 | 88 | 350 | 3.0 | 12.0 | 0.00 | 0.05 | 0.05 | 44 | 1010.1 |
| 20260904191227 | 87 | 278 | 6.0 | 15.0 | 0.00 | 0.05 | 0.05 | 44 | 1010.4 |
| 20260904185727 | 88 | 238 | 6.0 | 15.0 | 0.00 | 0.05 | 0.05 | 43 | 1010.5 |
| 20260904185227 | 88 | 235 | 4.0 | 14.0 | 0.00 | 0.05 | 0.05 | 44 | 1010.4 |
| 20260904184727 | 88 | 238 | 5.0 | 14.0 | 0.00 | 0.05 | 0.05 | 44 | 1010.3 |
| 20260904184226 | 88 | 351 | 5.0 | 16.0 | 0.00 | 0.05 | 0.05 | 44 | 1010.3 |
| 20260904183728 | 88 | 9 | 5.0 | 18.0 | 0.00 | 0.05 | 0.05 | 45 | 1010.4 |
| 20260904183226 | 88 | 250 | 6.0 | 18.0 | 0.00 | 0.05 | 0.05 | 44 | 1010.5 |
| 20260904182728 | 88 | 246 | 5.0 | 18.0 | 0.00 | 0.05 | 0.05 | 45 | 1010.4 |
| 20260904182227 | 88 | 34 | 5.0 | 12.0 | 0.00 | 0.05 | 0.05 | 45 | 1010.5 |
| 20260904181728 | 89 | 337 | 3.0 | 12.0 | 0.00 | 0.05 | 0.05 | 45 | 1010.4 |
| 20260904181227 | 89 | 305 | 2.0 | 12.0 | 0.00 | 0.05 | 0.05 | 45 | 1010.3 |
| 20260904180727 | 88 | 26 | 4.0 | 12.0 | 0.00 | 0.05 | 0.05 | 46 | 1010.4 |
| 20260904175727 | 88 | 252 | 5.0 | 12.0 | 0.00 | 0.05 | 0.05 | 46 | 1010.3 |
| 20260904175227 | 88 | 355 | 5.0 | 13.0 | 0.00 | 0.05 | 0.05 | 46 | 1010.4 |
| 20260904174727 | 88 | 184 | 7.0 | 13.0 | 0.00 | 0.05 | 0.05 | 46 | 1010.4 |
| 20260904174227 | 87 | 317 | 3.0 | 12.0 | 0.00 | 0.05 | 0.05 | 47 | 1010.3 |
| 20260904173727 | 87 | 315 | 7.0 | 13.0 | 0.00 | 0.05 | 0.05 | 46 | 1010.4 |
| 20260904173227 | 87 | 319 | 6.0 | 13.0 | 0.00 | 0.05 | 0.05 | 47 | 1010.4 |
| 20260904172727 | 87 | 271 | 5.0 | 12.0 | 0.00 | 0.05 | 0.05 | 47 | 1010.3 |
| 20260904172227 | 86 | 53 | 4.0 | 10.0 | 0.00 | 0.05 | 0.05 | 48 | 1010.4 |
| 20260904171727 | 87 | 243 | 5.0 | 10.0 | 0.00 | 0.05 | 0.05 | 47 | 1010.4 |
| 20260904171227 | 87 | 71 | 6.0 | 10.0 | 0.00 | 0.05 | 0.05 | 48 | 1010.3 |
| 20260904170727 | 87 | 0 | 6.0 | 13.0 | 0.00 | 0.05 | 0.05 | 47 | 1010.5 |
| 20260904170228 | 87 | 316 | 6.0 | 13.0 | 0.00 | 0.05 | 0.05 | 48 | 1010.5 |
| 20260904165726 | 88 | 327 | 7.0 | 13.0 | 0.00 | 0.05 | 0.05 | 47 | 1010.5 |
| 20260904165227 | 87 | 307 | 5.0 | 12.0 | 0.00 | 0.05 | 0.05 | 48 | 1010.4 |
| 20260904164727 | 87 | 9 | 6.0 | 18.0 | 0.00 | 0.05 | 0.05 | 47 | 1010.5 |
| 20260904164228 | 87 | 281 | 7.0 | 18.0 | 0.00 | 0.05 | 0.05 | 48 | 1010.5 |
| 20260904163726 | 87 | 303 | 6.0 | 15.0 | 0.00 | 0.05 | 0.05 | 48 | 1010.4 |
| 20260904162726 | 86 | 304 | 3.0 | 13.0 | 0.00 | 0.05 | 0.05 | 51 | 1010.5 |
| 20260904162226 | 86 | 23 | 7.0 | 13.0 | 0.00 | 0.05 | 0.05 | 50 | 1010.5 |
| 20260904161728 | 86 | 339 | 7.0 | 14.0 | 0.00 | 0.05 | 0.05 | 49 | 1010.5 |
| 20260904160726 | 86 | 284 | 7.0 | 15.0 | 0.00 | 0.05 | 0.05 | 49 | 1010.6 |
| 20260904160227 | 86 | 24 | 6.0 | 13.0 | 0.00 | 0.05 | 0.05 | 50 | 1010.7 |
| 20260904155728 | 86 | 27 | 6.0 | 18.0 | 0.00 | 0.05 | 0.05 | 51 | 1010.7 |
| 20260904155227 | 86 | 341 | 9.0 | 18.0 | 0.00 | 0.05 | 0.05 | 50 | 1010.7 |
| 20260904154227 | 85 | 300 | 6.0 | 13.0 | 0.00 | 0.05 | 0.05 | 51 | 1010.8 |
| 20260904153726 | 85 | 0 | 7.0 | 15.0 | 0.00 | 0.05 | 0.05 | 51 | 1010.8 |
| 20260904153227 | 85 | 254 | 6.0 | 15.0 | 0.00 | 0.05 | 0.05 | 52 | 1010.8 |
| 20260904151727 | 85 | 289 | 6.0 | 12.0 | 0.00 | 0.05 | 0.05 | 52 | 1010.9 |
| 20260904151227 | 85 | 331 | 6.0 | 12.0 | 0.00 | 0.05 | 0.05 | 52 | 1011.0 |
| 20260904150727 | 85 | 339 | 6.0 | 13.0 | 0.00 | 0.05 | 0.05 | 52 | 1011.0 |
| 20260904150226 | 85 | 355 | 6.0 | 13.0 | 0.00 | 0.05 | 0.05 | 53 | 1011.0 |
| 20260904145728 | 85 | 0 | 6.0 | 13.0 | 0.00 | 0.05 | 0.05 | 54 | 1011.0 |
| 20260904145226 | 85 | 318 | 5.0 | 13.0 | 0.00 | 0.05 | 0.05 | 56 | 1011.0 |
| 20260904144226 | 85 | 62 | 5.0 | 12.0 | 0.00 | 0.05 | 0.05 | 58 | 1010.8 |
| 20260904143726 | 84 | 355 | 3.0 | 12.0 | 0.00 | 0.05 | 0.05 | 59 | 1010.9 |
| 20260904143227 | 84 | 327 | 3.0 | 12.0 | 0.00 | 0.05 | 0.05 | 60 | 1010.8 |
| 20260904142727 | 84 | 286 | 4.0 | 12.0 | 0.00 | 0.05 | 0.05 | 61 | 1010.8 |
| 20260904142226 | 84 | 284 | 5.0 | 10.0 | 0.00 | 0.05 | 0.05 | 61 | 1010.8 |
| 20260904141726 | 83 | 9 | 4.0 | 13.0 | 0.00 | 0.05 | 0.05 | 62 | 1010.8 |
| 20260904141227 | 83 | 294 | 6.0 | 13.0 | 0.00 | 0.05 | 0.05 | 62 | 1010.8 |
| 20260904140727 | 83 | 342 | 5.0 | 12.0 | 0.00 | 0.05 | 0.05 | 63 | 1010.7 |
| 20260904140226 | 83 | 330 | 6.0 | 12.0 | 0.00 | 0.05 | 0.05 | 63 | 1010.7 |
| 20260904135727 | 83 | 300 | 4.0 | 10.0 | 0.00 | 0.05 | 0.05 | 64 | 1010.8 |
| 20260904135226 | 82 | 332 | 5.0 | 13.0 | 0.00 | 0.05 | 0.05 | 65 | 1010.8 |
| 20260904133226 | 82 | 13 | 5.0 | 12.0 | 0.00 | 0.05 | 0.05 | 67 | 1010.6 |
| 20260904132226 | 81 | 261 | 5.0 | 12.0 | 0.00 | 0.05 | 0.05 | 68 | 1010.6 |
| 20260904131227 | 80 | 313 | 3.0 | 10.0 | 0.00 | 0.05 | 0.05 | 70 | 1010.7 |
| 20260904130726 | 80 | 312 | 3.0 | 12.0 | 0.00 | 0.05 | 0.05 | 71 | 1010.7 |
| 20260904130226 | 79 | 20 | 4.0 | 12.0 | 0.00 | 0.05 | 0.05 | 72 | 1010.7 |
| 20260904125727 | 79 | 38 | 6.0 | 12.0 | 0.00 | 0.05 | 0.05 | 72 | 1010.7 |
| 20260904125226 | 79 | 347 | 5.0 | 12.0 | 0.00 | 0.05 | 0.05 | 74 | 1010.6 |
| 20260904124726 | 79 | 331 | 5.0 | 12.0 | 0.00 | 0.05 | 0.05 | 75 | 1010.6 |
| 20260904124227 | 79 | 242 | 5.0 | 12.0 | 0.00 | 0.05 | 0.05 | 76 | 1010.6 |
| 20260904123728 | 78 | 306 | 5.0 | 12.0 | 0.00 | 0.05 | 0.05 | 77 | 1010.6 |
| 20260904122727 | 78 | 313 | 5.0 | 13.0 | 0.00 | 0.05 | 0.05 | 79 | 1010.6 |
| 20260904122226 | 77 | 312 | 5.0 | 13.0 | 0.00 | 0.05 | 0.05 | 80 | 1010.5 |
| 20260904121226 | 77 | 336 | 3.0 | 10.0 | 0.00 | 0.05 | 0.05 | 82 | 1010.5 |
| 20260904120727 | 77 | 280 | 2.0 | 8.0 | 0.00 | 0.05 | 0.05 | 83 | 1010.5 |
| 20260904120226 | 76 | 314 | 3.0 | 8.0 | 0.00 | 0.05 | 0.05 | 84 | 1010.5 |
| 20260904115726 | 76 | 232 | 3.0 | 9.0 | 0.00 | 0.05 | 0.05 | 85 | 1010.5 |
| 20260904115226 | 76 | 333 | 2.0 | 9.0 | 0.00 | 0.05 | 0.05 | 85 | 1010.5 |
| 20260904114726 | 76 | 313 | 2.0 | 9.0 | 0.00 | 0.05 | 0.05 | 86 | 1010.6 |
| 20260904113726 | 75 | 333 | 1.0 | 8.0 | 0.00 | 0.05 | 0.05 | 87 | 1010.6 |
| 20260904113226 | 75 | 273 | 3.0 | 8.0 | 0.00 | 0.05 | 0.05 | 87 | 1010.5 |
| 20260904112726 | 75 | 309 | 1.0 | 5.0 | 0.00 | 0.05 | 0.05 | 87 | 1010.4 |
| 20260904112226 | 75 | 324 | 1.0 | 5.0 | 0.00 | 0.05 | 0.05 | 87 | 1010.3 |
| 20260904111727 | 75 | 323 | 2.0 | 5.0 | 0.00 | 0.05 | 0.05 | 87 | 1010.3 |
| 20260904111228 | 75 | 311 | 2.0 | 5.0 | 0.00 | 0.05 | 0.05 | 87 | 1010.3 |
| 20260904110227 | 75 | 301 | 3.0 | 5.0 | 0.00 | 0.05 | 0.05 | 87 | 1010.1 |
| 20260904105726 | 75 | 332 | 2.0 | 5.0 | 0.00 | 0.05 | 0.05 | 87 | 1010.2 |
| 20260904105226 | 75 | 309 | 2.0 | 3.0 | 0.00 | 0.05 | 0.05 | 87 | 1010.1 |
| 20260904104726 | 75 | 316 | 1.0 | 3.0 | 0.00 | 0.05 | 0.05 | 87 | 1010.1 |
| 20260904104226 | 75 | 266 | 1.0 | 3.0 | 0.00 | 0.05 | 0.05 | 87 | 1010.1 |
| 20260904103726 | 75 | 321 | 1.0 | 3.0 | 0.00 | 0.05 | 0.05 | 87 | 1010.1 |
| 20260904103226 | 75 | 240 | 1.0 | 3.0 | 0.00 | 0.05 | 0.05 | 87 | 1010.1 |
| 20260904102726 | 75 | 262 | 1.0 | 3.0 | 0.00 | 0.05 | 0.05 | 87 | 1010.0 |
| 20260904102226 | 74 | 262 | 1.0 | 3.0 | 0.00 | 0.05 | 0.05 | 87 | 1009.9 |
| 20260904101726 | 74 | 311 | 1.0 | 3.0 | 0.00 | 0.05 | 0.05 | 87 | 1009.9 |
| 20260904101226 | 74 | 285 | 0.0 | 3.0 | 0.00 | 0.05 | 0.05 | 86 | 1009.8 |
| 20260904100226 | 74 | 288 | 1.0 | 3.0 | 0.00 | 0.05 | 0.05 | 86 | 1009.9 |
| 20260904095726 | 75 | 239 | 0.0 | 3.0 | 0.00 | 0.05 | 0.05 | 86 | 1009.9 |
| 20260904095226 | 75 | 238 | 1.0 | 3.0 | 0.00 | 0.05 | 0.05 | 86 | 1009.8 |
| 20260904094726 | 75 | 244 | 0.0 | 6.0 | 0.00 | 0.05 | 0.05 | 86 | 1009.8 |
| 20260904094226 | 75 | 270 | 2.0 | 6.0 | 0.00 | 0.05 | 0.05 | 86 | 1009.9 |
| 20260904093726 | 75 | 232 | 1.0 | 3.0 | 0.00 | 0.05 | 0.05 | 86 | 1009.7 |
| 20260904093226 | 75 | 239 | 0.0 | 3.0 | 0.00 | 0.05 | 0.05 | 86 | 1009.5 |
| 20260904092726 | 75 | 239 | 1.0 | 3.0 | 0.00 | 0.05 | 0.05 | 86 | 1009.4 |
| 20260904092226 | 75 | 239 | 0.0 | 3.0 | 0.00 | 0.05 | 0.05 | 86 | 1009.5 |
| 20260904091726 | 75 | 236 | 2.0 | 3.0 | 0.00 | 0.05 | 0.05 | 86 | 1009.5 |
| 20260904091226 | 75 | 242 | 2.0 | 7.0 | 0.00 | 0.05 | 0.05 | 85 | 1009.4 |
| 20260904090726 | 75 | 248 | 1.0 | 7.0 | 0.00 | 0.05 | 0.05 | 85 | 1009.4 |
| 20260904090226 | 75 | 253 | 3.0 | 6.0 | 0.00 | 0.05 | 0.05 | 85 | 1009.5 |
| 20260904085726 | 75 | 274 | 1.0 | 7.0 | 0.00 | 0.05 | 0.05 | 85 | 1009.6 |
| 20260904085226 | 75 | 241 | 1.0 | 7.0 | 0.00 | 0.05 | 0.05 | 85 | 1009.7 |
| 20260904084725 | 75 | 244 | 1.0 | 3.0 | 0.00 | 0.05 | 0.05 | 85 | 1009.6 |
| 20260904084226 | 75 | 244 | 1.0 | 6.0 | 0.00 | 0.05 | 0.05 | 85 | 1009.5 |
| 20260904083726 | 75 | 252 | 1.0 | 6.0 | 0.00 | 0.05 | 0.05 | 85 | 1009.5 |
| 20260904083226 | 75 | 240 | 3.0 | 6.0 | 0.00 | 0.05 | 0.05 | 85 | 1009.6 |
| 20260904082726 | 75 | 233 | 1.0 | 6.0 | 0.00 | 0.05 | 0.05 | 85 | 1009.6 |
| 20260904081726 | 75 | 280 | 1.0 | 3.0 | 0.00 | 0.05 | 0.05 | 85 | 1009.7 |
| 20260904081226 | 75 | 252 | 1.0 | 3.0 | 0.00 | 0.05 | 0.05 | 85 | 1009.7 |
| 20260904080727 | 75 | 257 | 2.0 | 3.0 | 0.00 | 0.05 | 0.05 | 85 | 1009.7 |
| 20260904080226 | 75 | 266 | 2.0 | 3.0 | 0.00 | 0.05 | 0.05 | 85 | 1009.8 |
| 20260904075726 | 75 | 246 | 1.0 | 3.0 | 0.00 | 0.05 | 0.05 | 85 | 1009.7 |
| 20260904075226 | 75 | 254 | 1.0 | 3.0 | 0.00 | 0.05 | 0.05 | 85 | 1009.6 |
| 20260904074727 | 75 | 260 | 1.0 | 3.0 | 0.00 | 0.06 | 0.05 | 84 | 1009.7 |
| 20260904074226 | 75 | 278 | 1.0 | 2.0 | 0.01 | 0.06 | 0.05 | 84 | 1009.5 |
| 20260904073726 | 75 | 224 | 1.0 | 2.0 | 0.01 | 0.06 | 0.05 | 84 | 1009.6 |
| 20260904073225 | 75 | 142 | 0.0 | 2.0 | 0.01 | 0.06 | 0.05 | 84 | 1009.4 |
| 20260904072727 | 75 | 142 | 0.0 | 1.0 | 0.04 | 0.07 | 0.05 | 83 | 1009.2 |
| 20260904072226 | 75 | 142 | 0.0 | 2.0 | 0.05 | 0.07 | 0.05 | 83 | 1009.0 |
| 20260904071726 | 76 | 142 | 0.0 | 3.0 | 0.05 | 0.07 | 0.05 | 83 | 1008.8 |
| 20260904071225 | 76 | 140 | 2.0 | 3.0 | 0.05 | 0.08 | 0.05 | 82 | 1008.7 |
| 20260904070726 | 76 | 145 | 1.0 | 3.0 | 0.05 | 0.08 | 0.05 | 82 | 1008.8 |
| 20260904070226 | 76 | 340 | 0.0 | 3.0 | 0.05 | 0.09 | 0.05 | 81 | 1008.7 |
| 20260904065725 | 76 | 340 | 1.0 | 9.0 | 0.05 | 0.09 | 0.05 | 80 | 1008.8 |
| 20260904065225 | 76 | 257 | 3.0 | 9.0 | 0.05 | 0.10 | 0.05 | 79 | 1009.0 |
| 20260904064725 | 77 | 343 | 3.0 | 9.0 | 0.05 | 0.10 | 0.05 | 78 | 1009.3 |
| 20260904064225 | 78 | 292 | 3.0 | 12.0 | 0.04 | 0.10 | 0.04 | 77 | 1009.5 |
| 20260904063726 | 79 | 268 | 3.0 | 12.0 | 0.04 | 0.10 | 0.04 | 77 | 1009.8 |
| 20260904063226 | 80 | 0 | 5.0 | 12.0 | 0.04 | 0.11 | 0.04 | 76 | 1009.8 |
| 20260904062726 | 80 | 245 | 3.0 | 13.0 | 0.01 | 0.08 | 0.01 | 75 | 1009.9 |
| 20260904061725 | 81 | 213 | 2.0 | 8.0 | 0.00 | 0.07 | 0.00 | 75 | 1009.9 |
| 20260904061227 | 81 | 246 | 5.0 | 9.0 | 0.00 | 0.07 | 0.00 | 75 | 1009.8 |
| 20260904060727 | 81 | 261 | 3.0 | 9.0 | 0.00 | 0.07 | 0.00 | 75 | 1009.8 |
| 20260904055725 | 81 | 227 | 2.0 | 7.0 | 0.00 | 0.08 | 0.00 | 75 | 1009.8 |
| 20260904055225 | 81 | 210 | 2.0 | 6.0 | 0.00 | 0.08 | 0.00 | 75 | 1009.8 |
| 20260904054726 | 81 | 243 | 1.0 | 6.0 | 0.00 | 0.09 | 0.00 | 75 | 1009.9 |
| 20260904054225 | 81 | 197 | 2.0 | 6.0 | 0.00 | 0.09 | 0.00 | 75 | 1010.0 |
| 20260904053226 | 81 | 209 | 2.0 | 8.0 | 0.00 | 0.10 | 0.00 | 75 | 1010.3 |
| 20260904052725 | 81 | 209 | 3.0 | 8.0 | 0.00 | 0.11 | 0.00 | 75 | 1010.3 |
| 20260904052226 | 81 | 172 | 2.0 | 7.0 | 0.00 | 0.11 | 0.00 | 74 | 1010.3 |
| 20260904051726 | 81 | 196 | 2.0 | 7.0 | 0.00 | 0.11 | 0.00 | 74 | 1010.3 |
| 20260904051225 | 81 | 159 | 2.0 | 7.0 | 0.00 | 0.11 | 0.00 | 74 | 1010.3 |
| 20260904050226 | 81 | 198 | 2.0 | 8.0 | 0.00 | 0.11 | 0.00 | 73 | 1010.2 |
| 20260904045726 | 82 | 176 | 2.0 | 8.0 | 0.00 | 0.11 | 0.00 | 73 | 1010.2 |
| 20260904045226 | 82 | 168 | 3.0 | 8.0 | 0.00 | 0.12 | 0.00 | 73 | 1010.4 |
| 20260904044725 | 82 | 162 | 2.0 | 8.0 | 0.00 | 0.12 | 0.00 | 72 | 1010.5 |
| 20260904044225 | 82 | 210 | 2.0 | 8.0 | 0.00 | 0.12 | 0.00 | 72 | 1010.6 |
| 20260904043726 | 82 | 131 | 2.0 | 6.0 | 0.00 | 0.12 | 0.00 | 72 | 1010.7 |
| 20260904043226 | 82 | 227 | 2.0 | 6.0 | 0.00 | 0.12 | 0.00 | 72 | 1010.7 |
| 20260904042728 | 82 | 163 | 3.0 | 7.0 | 0.00 | 0.12 | 0.00 | 71 | 1010.8 |
| 20260904042228 | 82 | 175 | 4.0 | 7.0 | 0.00 | 0.12 | 0.00 | 71 | 1010.8 |
| 20260904041228 | 82 | 162 | 2.0 | 7.0 | 0.00 | 0.12 | 0.00 | 70 | 1011.0 |
| 20260904040729 | 83 | 169 | 3.0 | 7.0 | 0.00 | 0.12 | 0.00 | 70 | 1011.2 |
| 20260904035729 | 83 | 211 | 2.0 | 7.0 | 0.00 | 0.12 | 0.12 | 70 | 1011.1 |
| 20260904035228 | 83 | 162 | 2.0 | 7.0 | 0.00 | 0.12 | 0.12 | 69 | 1011.0 |
| 20260904034728 | 83 | 209 | 3.0 | 7.0 | 0.00 | 0.12 | 0.12 | 69 | 1011.0 |
| 20260904034228 | 83 | 234 | 2.0 | 6.0 | 0.00 | 0.12 | 0.12 | 69 | 1011.0 |
| 20260904033728 | 83 | 149 | 2.0 | 8.0 | 0.00 | 0.12 | 0.12 | 69 | 1010.9 |
| 20260904033228 | 83 | 213 | 3.0 | 8.0 | 0.00 | 0.12 | 0.12 | 69 | 1010.8 |
| 20260904032228 | 83 | 171 | 2.0 | 6.0 | 0.00 | 0.12 | 0.12 | 68 | 1010.5 |
| 20260904031227 | 83 | 200 | 2.0 | 6.0 | 0.00 | 0.12 | 0.12 | 68 | 1010.7 |
| 20260904030727 | 83 | 163 | 2.0 | 6.0 | 0.00 | 0.12 | 0.12 | 68 | 1010.6 |
| 20260904030228 | 83 | 180 | 2.0 | 9.0 | 0.00 | 0.12 | 0.12 | 68 | 1010.9 |
| 20260904025728 | 84 | 147 | 3.0 | 9.0 | 0.00 | 0.12 | 0.12 | 67 | 1010.9 |
| 20260904025228 | 84 | 68 | 3.0 | 9.0 | 0.00 | 0.12 | 0.12 | 67 | 1011.1 |
| 20260904024727 | 84 | 169 | 2.0 | 5.0 | 0.00 | 0.12 | 0.12 | 67 | 1011.1 |
| 20260904024227 | 84 | 254 | 2.0 | 6.0 | 0.00 | 0.12 | 0.12 | 67 | 1011.2 |
| 20260904023728 | 84 | 257 | 2.0 | 6.0 | 0.00 | 0.12 | 0.12 | 67 | 1011.1 |
| 20260904023228 | 84 | 245 | 2.0 | 3.0 | 0.00 | 0.12 | 0.12 | 67 | 1011.3 |
| 20260904022228 | 84 | 205 | 2.0 | 6.0 | 0.00 | 0.12 | 0.12 | 67 | 1011.3 |
| 20260904021728 | 84 | 211 | 1.0 | 6.0 | 0.00 | 0.12 | 0.12 | 66 | 1011.4 |
| 20260904021228 | 84 | 233 | 2.0 | 7.0 | 0.00 | 0.12 | 0.12 | 66 | 1011.6 |
| 20260904020728 | 84 | 247 | 2.0 | 7.0 | 0.00 | 0.12 | 0.12 | 66 | 1011.6 |
| 20260904020228 | 84 | 180 | 2.0 | 6.0 | 0.00 | 0.12 | 0.12 | 66 | 1011.7 |
| 20260904015728 | 84 | 172 | 2.0 | 8.0 | 0.00 | 0.12 | 0.12 | 66 | 1011.8 |
| 20260904015227 | 84 | 133 | 2.0 | 8.0 | 0.00 | 0.12 | 0.12 | 66 | 1011.9 |
| 20260904014727 | 84 | 259 | 2.0 | 8.0 | 0.00 | 0.12 | 0.12 | 66 | 1011.9 |
| 20260904014228 | 84 | 203 | 1.0 | 6.0 | 0.00 | 0.12 | 0.12 | 65 | 1011.9 |
| 20260904013728 | 84 | 170 | 2.0 | 6.0 | 0.00 | 0.12 | 0.12 | 65 | 1011.9 |
| 20260904013228 | 85 | 152 | 2.0 | 6.0 | 0.00 | 0.12 | 0.12 | 65 | 1011.8 |
| 20260904012728 | 85 | 199 | 1.0 | 3.0 | 0.00 | 0.12 | 0.12 | 65 | 1011.6 |
| 20260904012228 | 85 | 169 | 1.0 | 5.0 | 0.00 | 0.12 | 0.12 | 64 | 1011.7 |
| 20260904011227 | 85 | 196 | 2.0 | 5.0 | 0.00 | 0.12 | 0.12 | 64 | 1011.7 |
| 20260904010228 | 85 | 202 | 1.0 | 6.0 | 0.00 | 0.12 | 0.12 | 64 | 1011.6 |
| 20260904005727 | 85 | 195 | 1.0 | 6.0 | 0.00 | 0.12 | 0.12 | 63 | 1011.6 |
| 20260904005228 | 85 | 147 | 2.0 | 5.0 | 0.00 | 0.12 | 0.12 | 63 | 1011.5 |
| 20260904004728 | 85 | 165 | 1.0 | 5.0 | 0.00 | 0.12 | 0.12 | 64 | 1011.3 |
| 20260904004228 | 85 | 175 | 2.0 | 5.0 | 0.00 | 0.12 | 0.12 | 63 | 1011.2 |
| 20260904003728 | 85 | 157 | 1.0 | 5.0 | 0.00 | 0.12 | 0.12 | 63 | 1011.3 |
| 20260904003227 | 85 | 228 | 1.0 | 5.0 | 0.00 | 0.12 | 0.12 | 63 | 1011.5 |
| 20260904002727 | 85 | 157 | 1.0 | 5.0 | 0.00 | 0.12 | 0.12 | 63 | 1011.6 |
| 20260904002227 | 85 | 175 | 1.0 | 5.0 | 0.00 | 0.12 | 0.12 | 63 | 1011.6 |
| 20260904001728 | 85 | 209 | 2.0 | 6.0 | 0.00 | 0.12 | 0.12 | 63 | 1011.5 |
| 20260904001228 | 85 | 169 | 2.0 | 6.0 | 0.00 | 0.12 | 0.12 | 63 | 1011.2 |
| 20260904000727 | 85 | 223 | 2.0 | 6.0 | 0.00 | 0.12 | 0.12 | 63 | 1011.4 |
| 20260904000228 | 85 | 190 | 2.0 | 6.0 | 0.00 | 0.12 | 0.12 | 63 | 1011.2 |
| 20260903235228 | 86 | 190 | 1.0 | 3.0 | 0.00 | 0.12 | 0.12 | 62 | 1010.9 |
| 20260903234728 | 86 | 198 | 0.0 | 3.0 | 0.00 | 0.12 | 0.12 | 62 | 1010.9 |
| 20260903234228 | 86 | 230 | 2.0 | 6.0 | 0.00 | 0.12 | 0.12 | 61 | 1010.9 |
| 20260903233727 | 86 | 233 | 2.0 | 6.0 | 0.00 | 0.12 | 0.12 | 61 | 1011.0 |
| 20260903233228 | 86 | 254 | 1.0 | 2.0 | 0.00 | 0.12 | 0.12 | 60 | 1011.0 |
| 20260903232728 | 87 | 253 | 0.0 | 3.0 | 0.00 | 0.12 | 0.12 | 60 | 1010.8 |
| 20260903231727 | 87 | 253 | 1.0 | 5.0 | 0.00 | 0.12 | 0.12 | 59 | 1010.7 |
| 20260903231228 | 87 | 214 | 2.0 | 6.0 | 0.00 | 0.12 | 0.12 | 59 | 1010.9 |
| 20260903230727 | 87 | 238 | 1.0 | 6.0 | 0.00 | 0.12 | 0.12 | 58 | 1011.0 |
| 20260903230227 | 88 | 280 | 2.0 | 6.0 | 0.00 | 0.12 | 0.12 | 58 | 1011.0 |
| 20260903225727 | 88 | 236 | 1.0 | 3.0 | 0.00 | 0.12 | 0.12 | 58 | 1010.9 |